Etusivu
METAR-TAF:

METAR-TAF

Lentoasemat :

Brysselin lentoasema

Bryssel, Belgia

Leveyspiiri: 50-54N, Pituuspiiri: 004-32E, korkeus merenpinnasta: 55 m

Tämänhetkinen sää

Tämä raportti tehtiin 28 minuuttia sitten, kello 11.20 UTC
Tuuli 6 kn lännestä/luoteesta, vaihdellen lännen/lounaan ja pohjoisen/luoteen välillä
Lämpötila 28°C
Kosteus 42%
Ilmanpaine 1017 hPa
Näkyvyys 10 km tai enemmän
ei pilviä alle 1500 m:ssä eikä cumulonimbus-pilviä

METAR: EBBR 231120Z 29006KT 250V340 CAVOK 28/14 Q1017 NOSIG

Aika: 13:48 (11:48 UTC)

Sääennuste

Tämä raportti tehtiin 38 minuuttia sitten, kello 11.10 UTC
Ennuste voimassa 23. päivästä klo 12 UTC - 24. päivään klo 18 UTC
Tuuli 5 kn lännestä/luoteesta
Näkyvyys 10 km tai enemmän
ei pilviä alle 1500 m:ssä eikä cumulonimbus-pilviä

TAF: EBBR 231110Z 2312/2418 29005KT CAVOK

Säähavainnot ja -ennusteet yli 4000 lentoasemalta (METAR- ja TAF-raportit).

Käytössä olevat sääasemat on merkitty karttaan keltaisilla ja punaisilla pisteillä.

Aseta hiiri pisteen päälle nähdäksesi sääaseman nimen.

Klikkaa sitten nähdäksesi säähavainnot ja -ennusteet.

Kartan vaihtaminen: klikkaa mustalla rastilla varustettuja vihreitä pisteitä, niin voit zoomata sisään; viivalla varustettua vihreää pistettä, niin voit zoomata ulos tai vihreitä nuolia, niin pääset viereisille kartoille.


METAR-TAF: